createdAt,value
2018-07-09T00:04:24.353Z,90.50
2018-07-09T00:06:52.007Z,87.90
2018-07-09T00:09:19.717Z,88.20
2018-07-09T00:11:47.386Z,89.50
2018-07-09T00:14:15.271Z,90.10
2018-07-09T00:19:10.591Z,90.00
2018-07-09T00:21:38.271Z,90.30
2018-07-09T00:24:06.311Z,90.50
2018-07-09T00:26:33.996Z,90.60
2018-07-09T00:31:29.404Z,90.50
2018-07-09T00:33:57.121Z,91.30
2018-07-09T00:36:24.806Z,91.50
2018-07-09T00:41:20.961Z,92.30
2018-07-09T00:43:48.916Z,92.00
2018-07-09T00:46:16.669Z,91.90
2018-07-09T00:48:45.182Z,91.50
2018-07-09T00:51:12.863Z,90.60
2018-07-09T00:53:40.484Z,90.70
2018-07-09T00:56:08.253Z,90.50
2018-07-09T00:58:37.171Z,90.80
2018-07-09T01:01:04.954Z,90.40
2018-07-09T01:03:32.681Z,91.20
2018-07-09T01:06:00.368Z,90.50
2018-07-09T01:08:28.342Z,90.80
2018-07-09T01:11:07.129Z,90.90
2018-07-09T01:13:41.038Z,91.50
2018-07-09T01:16:09.496Z,91.80
2018-07-09T01:18:37.167Z,91.70
2018-07-09T01:21:06.953Z,89.40
2018-07-09T01:23:34.971Z,90.10
2018-07-09T01:26:03.421Z,90.80
2018-07-09T01:28:31.754Z,90.80
2018-07-09T01:30:59.408Z,91.40
2018-07-09T01:33:27.183Z,91.80
2018-07-09T01:35:54.886Z,92.20
2018-07-09T01:38:22.573Z,92.70
2018-07-09T01:40:50.196Z,92.70
2018-07-09T01:43:17.926Z,92.60
2018-07-09T01:45:45.562Z,93.20
2018-07-09T01:48:13.248Z,93.00
2018-07-09T01:50:40.927Z,93.10
2018-07-09T01:53:08.607Z,93.50
2018-07-09T01:55:36.337Z,93.80
2018-07-09T01:58:04.029Z,93.50
2018-07-09T02:00:31.747Z,93.40
2018-07-09T02:02:59.432Z,93.40
2018-07-09T02:05:27.117Z,92.70
2018-07-09T02:10:22.333Z,91.90
2018-07-09T02:20:12.568Z,92.30
2018-07-09T02:22:40.238Z,92.00
2018-07-09T02:34:58.097Z,91.20
2018-07-09T02:39:53.279Z,91.20
2018-07-09T02:42:20.968Z,91.50
2018-07-09T02:44:48.590Z,91.80
2018-07-09T02:47:16.248Z,92.50
2018-07-09T02:52:11.418Z,92.40
2018-07-09T02:54:39.095Z,92.60
2018-07-09T02:57:06.759Z,92.70
2018-07-09T02:59:34.395Z,93.40
2018-07-09T03:02:02.145Z,93.00
2018-07-09T03:04:29.810Z,92.90
2018-07-09T03:06:57.504Z,93.50
2018-07-09T03:11:52.680Z,93.80
2018-07-09T03:14:20.394Z,93.50
2018-07-09T03:19:15.639Z,93.10
2018-07-09T03:21:43.419Z,92.80
2018-07-09T03:24:11.064Z,92.30
2018-07-09T03:26:38.789Z,92.10
2018-07-09T03:31:33.995Z,92.20
2018-07-09T03:34:01.746Z,92.10
2018-07-09T03:36:29.440Z,91.80
2018-07-09T03:38:57.075Z,91.80
2018-07-09T03:43:52.363Z,91.40
2018-07-09T03:46:20.056Z,91.50
2018-07-09T03:48:47.758Z,91.80
2018-07-09T03:51:15.424Z,92.40
2018-07-09T03:53:43.330Z,93.20
2018-07-09T03:56:11.003Z,92.30
2018-07-09T03:58:38.684Z,92.70
2018-07-09T04:03:33.908Z,92.90
2018-07-09T04:06:01.605Z,92.90
2018-07-09T04:08:29.249Z,93.20
2018-07-09T04:10:56.932Z,92.50
2018-07-09T04:13:24.578Z,92.80
2018-07-09T04:15:52.323Z,92.60
2018-07-09T04:18:24.086Z,92.70
2018-07-09T04:20:52.954Z,93.40
2018-07-09T04:25:48.244Z,93.40
2018-07-09T04:28:15.939Z,93.40
2018-07-09T04:30:43.573Z,92.80
2018-07-09T04:33:11.281Z,93.90
2018-07-09T04:35:38.914Z,93.70
2018-07-09T04:38:06.604Z,92.80
2018-07-09T04:40:34.203Z,92.40
2018-07-09T04:45:29.436Z,91.90
2018-07-09T04:50:24.649Z,91.70
2018-07-09T04:52:52.429Z,91.70
2018-07-09T04:55:20.209Z,92.00
2018-07-09T04:57:47.943Z,93.00
2018-07-09T05:00:15.631Z,93.90
2018-07-09T05:02:43.324Z,93.80
2018-07-09T05:10:06.105Z,91.50
2018-07-09T05:15:01.495Z,90.90
2018-07-09T05:17:29.188Z,90.90
2018-07-09T05:19:56.910Z,91.20
2018-07-09T05:27:19.824Z,92.10
2018-07-09T05:29:47.478Z,91.90
2018-07-09T05:32:15.165Z,91.50
2018-07-09T05:34:42.840Z,91.50
2018-07-09T05:37:10.505Z,91.60
2018-07-09T05:39:38.501Z,91.50
2018-07-09T05:42:06.286Z,91.90
2018-07-09T05:44:34.159Z,92.20
2018-07-09T05:47:02.135Z,92.60
2018-07-09T05:51:57.408Z,91.90
2018-07-09T05:54:25.122Z,91.80
2018-07-09T05:56:52.806Z,91.10
2018-07-09T05:59:20.518Z,91.20
2018-07-09T06:01:48.321Z,91.10
2018-07-09T06:04:15.975Z,91.20
2018-07-09T06:06:43.689Z,91.20
2018-07-09T06:11:39.120Z,90.80
2018-07-09T06:16:34.430Z,88.80
2018-07-09T06:19:02.100Z,87.60
2018-07-09T06:21:30.413Z,88.10
2018-07-09T06:23:58.258Z,83.60
2018-07-09T06:26:25.996Z,84.10
2018-07-09T06:28:53.950Z,84.90
2018-07-09T06:31:21.724Z,87.40
2018-07-09T06:33:49.461Z,84.10
2018-07-09T06:36:17.236Z,82.40
2018-07-09T06:38:44.995Z,80.70
2018-07-09T06:41:12.860Z,78.80
2018-07-09T06:43:40.657Z,77.60
2018-07-09T06:46:08.389Z,81.60
2018-07-09T06:48:36.186Z,77.50
2018-07-09T06:53:31.609Z,74.30
2018-07-09T06:55:59.510Z,73.70
2018-07-09T06:58:27.210Z,74.50
2018-07-09T07:00:54.975Z,75.60
2018-07-09T07:03:22.669Z,70.70
2018-07-09T07:05:50.436Z,70.80
2018-07-09T07:08:18.060Z,70.60
2018-07-09T07:13:13.350Z,68.80
2018-07-09T07:20:36.200Z,67.90
2018-07-09T07:25:31.636Z,66.60
2018-07-09T07:30:26.926Z,67.80
2018-07-09T07:32:54.646Z,63.00
2018-07-09T07:37:49.965Z,65.20
2018-07-09T07:40:17.697Z,62.40
2018-07-09T07:42:45.375Z,60.60
2018-07-09T07:45:13.129Z,56.40
2018-07-09T07:47:40.831Z,58.80
2018-07-09T07:50:08.516Z,59.10
2018-07-09T07:52:36.251Z,57.50
2018-07-09T07:55:04.126Z,57.40
2018-07-09T07:57:31.810Z,56.80
2018-07-09T08:02:27.159Z,59.10
2018-07-09T08:04:54.899Z,56.10
2018-07-09T08:07:22.649Z,55.20
2018-07-09T08:09:50.300Z,58.90
2018-07-09T08:13:00.532Z,57.40
2018-07-09T08:17:13.281Z,57.30
2018-07-09T08:22:08.569Z,57.20
2018-07-09T08:29:31.407Z,57.00
2018-07-09T08:31:59.123Z,54.80
2018-07-09T08:34:26.869Z,55.00
2018-07-09T08:36:54.889Z,53.70
2018-07-09T08:41:50.487Z,54.30
2018-07-09T08:44:18.645Z,54.90
2018-07-09T08:46:46.362Z,53.80
2018-07-09T08:49:14.130Z,54.60
2018-07-09T08:51:41.925Z,52.90
2018-07-09T08:54:09.881Z,52.00
2018-07-09T08:56:37.560Z,54.10
2018-07-09T08:59:05.437Z,52.20
2018-07-09T09:04:00.720Z,52.30
2018-07-09T09:06:28.429Z,56.60
2018-07-09T09:11:24.156Z,53.60
2018-07-09T09:16:19.404Z,55.50
2018-07-09T09:18:47.091Z,55.50
2018-07-09T09:21:14.911Z,55.00
2018-07-09T09:23:42.615Z,53.60
2018-07-09T09:28:37.943Z,55.50
2018-07-09T09:33:33.326Z,54.40
2018-07-09T09:36:01.007Z,52.70
2018-07-09T09:38:28.710Z,53.10
2018-07-09T09:40:56.439Z,52.80
2018-07-09T09:48:19.201Z,53.80
2018-07-09T09:50:46.936Z,53.60
2018-07-09T09:53:15.539Z,53.60
2018-07-09T09:55:43.303Z,53.60
2018-07-09T09:58:11.015Z,53.20
2018-07-09T10:00:44.285Z,53.90
2018-07-09T10:03:11.933Z,51.70
2018-07-09T10:17:56.032Z,50.20
2018-07-09T10:20:23.749Z,50.40
2018-07-09T10:22:51.693Z,48.70
2018-07-09T10:25:19.630Z,48.40
2018-07-09T10:27:48.582Z,46.70
2018-07-09T10:32:42.883Z,48.50
2018-07-09T10:35:10.731Z,46.00
2018-07-09T10:37:38.490Z,47.00
2018-07-09T10:42:33.983Z,45.60
2018-07-09T10:47:29.699Z,44.00
2018-07-09T10:49:57.515Z,45.20
2018-07-09T10:59:48.520Z,42.50
2018-07-09T11:02:16.275Z,41.70
2018-07-09T11:04:44.012Z,40.60
2018-07-09T11:07:12.582Z,44.20
2018-07-09T11:09:40.375Z,41.90
2018-07-09T11:17:05.917Z,44.80
2018-07-09T11:22:01.145Z,45.00
2018-07-09T11:24:28.901Z,45.90
2018-07-09T11:26:56.622Z,45.90
2018-07-09T11:31:51.980Z,42.50
2018-07-09T11:34:19.646Z,40.40
2018-07-09T11:36:47.400Z,40.80
2018-07-09T11:44:11.027Z,41.80
2018-07-09T11:46:38.738Z,43.80
2018-07-09T11:49:06.510Z,42.90
2018-07-09T11:51:34.232Z,43.20
2018-07-09T11:54:01.962Z,44.90
2018-07-09T11:58:48.851Z,44.40
2018-07-09T12:01:17.049Z,43.40
2018-07-09T12:03:44.806Z,44.10
2018-07-09T12:08:40.377Z,42.90
2018-07-09T12:11:08.321Z,42.30
2018-07-09T12:13:36.024Z,41.10
2018-07-09T12:16:03.770Z,41.10
2018-07-09T12:18:32.080Z,41.70
2018-07-09T12:20:59.823Z,40.70
2018-07-09T12:23:27.546Z,39.80
2018-07-09T12:30:50.346Z,38.10
2018-07-09T12:35:45.629Z,37.40
2018-07-09T12:38:13.416Z,35.50
2018-07-09T12:40:41.121Z,35.90
2018-07-09T12:43:09.160Z,37.40
2018-07-09T12:45:36.900Z,38.70
2018-07-09T12:48:04.867Z,38.70
2018-07-09T12:53:00.103Z,35.40
2018-07-09T12:55:27.912Z,36.30
2018-07-09T12:57:55.627Z,37.70
2018-07-09T13:00:23.511Z,36.90
2018-07-09T13:02:51.238Z,35.80
2018-07-09T13:07:46.585Z,36.40
2018-07-09T13:10:14.252Z,35.20
2018-07-09T13:15:09.562Z,36.30
2018-07-09T13:17:38.123Z,34.00
2018-07-09T13:20:05.991Z,38.40
2018-07-09T13:25:01.352Z,35.70
2018-07-09T13:27:29.218Z,35.30
2018-07-09T13:32:24.668Z,35.00
2018-07-09T13:34:53.039Z,34.10
2018-07-09T13:37:20.782Z,34.70
2018-07-09T13:39:48.616Z,33.30
2018-07-09T13:42:16.286Z,36.30
2018-07-09T13:49:39.268Z,37.00
2018-07-09T13:52:07.026Z,38.80
2018-07-09T13:54:34.881Z,40.30
2018-07-09T13:57:02.644Z,39.60
2018-07-09T13:59:30.381Z,37.00
2018-07-09T14:04:25.661Z,36.60
2018-07-09T14:06:53.461Z,38.20
2018-07-09T14:14:16.286Z,34.40
2018-07-09T14:16:44.013Z,32.20
2018-07-09T14:19:23.232Z,31.70
2018-07-09T14:21:50.868Z,31.80
2018-07-09T14:24:18.558Z,30.50
2018-07-09T14:29:14.176Z,30.90
2018-07-09T14:39:05.338Z,39.70
2018-07-09T14:41:33.257Z,40.00
2018-07-09T14:44:01.018Z,37.40
2018-07-09T14:46:28.753Z,36.20
2018-07-09T14:48:56.428Z,34.40
2018-07-09T14:53:51.731Z,33.00
2018-07-09T14:56:19.459Z,32.70
2018-07-09T14:58:47.141Z,32.40
2018-07-09T15:03:42.443Z,32.50
2018-07-09T15:08:38.252Z,34.00
2018-07-09T15:11:06.145Z,34.50
2018-07-09T15:13:33.884Z,33.70
2018-07-09T15:16:01.625Z,32.90
2018-07-09T15:18:29.293Z,33.10
2018-07-09T15:20:57.178Z,33.10
2018-07-09T15:23:24.884Z,34.40
2018-07-09T15:25:52.708Z,35.20
2018-07-09T15:30:48.009Z,33.20
2018-07-09T15:33:15.693Z,33.60
2018-07-09T15:40:40.173Z,35.00
2018-07-09T15:43:07.808Z,35.80
2018-07-09T15:45:35.608Z,36.00
2018-07-09T15:48:03.382Z,35.40
2018-07-09T15:50:31.120Z,36.90
2018-07-09T15:52:58.807Z,37.60
2018-07-09T15:55:26.523Z,37.00
2018-07-09T15:57:54.361Z,38.40
2018-07-09T16:00:22.188Z,38.80
2018-07-09T16:02:49.933Z,40.00
2018-07-09T16:05:17.695Z,39.20
2018-07-09T16:07:45.431Z,40.40
2018-07-09T16:10:13.147Z,40.60
2018-07-09T16:12:40.977Z,41.90
2018-07-09T16:15:08.696Z,43.20
2018-07-09T16:20:04.054Z,44.40
2018-07-09T16:22:32.279Z,47.40
2018-07-09T16:24:59.958Z,46.90
2018-07-09T16:27:27.694Z,45.60
2018-07-09T16:29:55.412Z,46.40
2018-07-09T16:32:23.144Z,46.00
2018-07-09T16:37:18.603Z,48.20
2018-07-09T16:39:46.309Z,46.20
2018-07-09T16:42:14.182Z,47.20
2018-07-09T16:44:41.887Z,45.10
2018-07-09T16:47:09.589Z,45.80
2018-07-09T16:49:37.268Z,46.50
2018-07-09T16:52:05.064Z,47.80
2018-07-09T16:54:32.828Z,47.40
2018-07-09T17:01:55.841Z,42.00
2018-07-09T17:06:51.182Z,43.80
2018-07-09T17:09:18.923Z,43.80
2018-07-09T17:11:46.585Z,42.00
2018-07-09T17:14:14.356Z,43.90
2018-07-09T17:16:42.154Z,44.40
2018-07-09T17:21:37.581Z,44.20
2018-07-09T17:26:33.214Z,44.40
2018-07-09T17:29:00.933Z,44.90
2018-07-09T17:31:28.684Z,45.60
2018-07-09T17:36:24.007Z,45.60
2018-07-09T17:38:52.010Z,46.80
2018-07-09T17:41:19.804Z,47.20
2018-07-09T17:43:47.560Z,48.10
2018-07-09T17:46:15.305Z,48.80
2018-07-09T17:48:43.026Z,49.30
2018-07-09T17:51:10.745Z,48.60
2018-07-09T17:53:38.582Z,49.20
2018-07-09T17:58:33.843Z,50.50
2018-07-09T18:01:01.669Z,50.50
2018-07-09T18:03:29.445Z,51.30
2018-07-09T18:05:57.183Z,50.40
2018-07-09T18:10:52.580Z,51.10
2018-07-09T18:15:48.022Z,50.40
2018-07-09T18:20:43.343Z,50.90
2018-07-09T18:23:11.078Z,50.10
2018-07-09T18:28:06.399Z,50.20
2018-07-09T18:30:34.248Z,50.50
2018-07-09T18:33:02.056Z,52.00
2018-07-09T18:40:24.957Z,51.20
2018-07-09T18:42:52.759Z,52.30
2018-07-09T18:45:20.554Z,50.80
2018-07-09T18:52:43.454Z,51.70
2018-07-09T18:55:11.218Z,52.20
2018-07-09T18:57:38.939Z,52.10
2018-07-09T19:00:06.713Z,51.90
2018-07-09T19:02:34.464Z,52.90
2018-07-09T19:09:58.637Z,52.30
2018-07-09T19:14:59.717Z,52.80
2018-07-09T19:20:39.426Z,53.00
2018-07-09T19:30:29.832Z,53.80
2018-07-09T19:32:56.388Z,53.60
2018-07-09T19:37:50.329Z,54.70
2018-07-09T19:40:16.679Z,52.80
2018-07-09T19:42:44.102Z,53.50
2018-07-09T19:50:06.659Z,56.50
2018-07-09T19:52:33.223Z,56.90
2018-07-09T19:57:26.929Z,54.30
2018-07-09T19:59:54.222Z,56.10
2018-07-09T20:04:48.344Z,58.00
2018-07-09T20:07:15.316Z,57.60
2018-07-09T20:09:47.456Z,58.70
2018-07-09T20:12:20.040Z,58.80
2018-07-09T20:14:53.103Z,60.00
2018-07-09T20:17:25.090Z,59.20
2018-07-09T20:19:51.620Z,60.60
2018-07-09T20:22:19.195Z,61.10
2018-07-09T20:24:45.754Z,61.30
2018-07-09T20:27:12.353Z,61.40
2018-07-09T20:29:39.705Z,61.90
2018-07-09T20:32:06.308Z,62.00
2018-07-09T20:34:32.858Z,61.40
2018-07-09T20:37:00.223Z,60.60
2018-07-09T20:39:27.326Z,62.30
2018-07-09T20:41:53.885Z,62.00
2018-07-09T20:44:20.721Z,63.30
2018-07-09T20:46:47.293Z,63.80
2018-07-09T20:51:40.918Z,65.10
2018-07-09T21:04:02.098Z,65.10
2018-07-09T21:08:55.735Z,65.10
2018-07-09T21:13:49.944Z,67.20
2018-07-09T21:16:17.218Z,66.70
2018-07-09T21:18:44.908Z,66.40
2018-07-09T21:21:11.968Z,67.10
2018-07-09T21:23:40.866Z,67.20
2018-07-09T21:26:07.654Z,61.40
2018-07-09T21:28:34.235Z,59.60
2018-07-09T21:31:02.035Z,60.50
2018-07-09T21:33:29.060Z,57.80
2018-07-09T21:35:55.576Z,61.90
2018-07-09T21:38:22.090Z,61.00
2018-07-09T21:43:16.495Z,65.60
2018-07-09T21:45:43.843Z,65.30
2018-07-09T21:48:11.375Z,66.20
2018-07-09T21:50:38.518Z,67.20
2018-07-09T21:53:06.133Z,67.20
2018-07-09T22:00:27.010Z,67.40
2018-07-09T22:02:53.511Z,69.50
2018-07-09T22:05:20.034Z,69.40
2018-07-09T22:12:40.479Z,71.80
2018-07-09T22:17:34.166Z,72.70
2018-07-09T22:20:00.657Z,72.30
2018-07-09T22:22:27.224Z,73.60
2018-07-09T22:24:53.733Z,74.10
2018-07-09T22:27:20.260Z,74.30
2018-07-09T22:29:46.774Z,75.60
2018-07-09T22:34:42.001Z,77.50
2018-07-09T22:37:09.780Z,77.30
2018-07-09T22:42:05.016Z,78.90
2018-07-09T22:44:32.633Z,77.60
2018-07-09T22:47:00.333Z,78.70
2018-07-09T22:49:27.999Z,78.60
2018-07-09T22:51:55.680Z,78.90
2018-07-09T22:59:18.439Z,81.60
2018-07-09T23:04:13.656Z,81.30
2018-07-09T23:06:41.421Z,83.20
2018-07-09T23:10:18.687Z,83.60
2018-07-09T23:17:02.408Z,85.10
2018-07-09T23:22:17.195Z,85.90
2018-07-09T23:24:43.746Z,85.90
2018-07-09T23:27:10.269Z,86.00
2018-07-09T23:29:36.786Z,86.10
2018-07-09T23:32:03.290Z,86.10
2018-07-09T23:34:29.810Z,86.00
2018-07-09T23:36:56.341Z,85.80
2018-07-09T23:39:23.436Z,84.40
2018-07-09T23:44:16.941Z,84.40
2018-07-09T23:49:10.417Z,84.00
2018-07-09T23:51:36.979Z,83.60
2018-07-09T23:54:03.462Z,83.60
